sensor_id;sensor_type;location;lat;lon;timestamp;P1;durP1;ratioP1;P2;durP2;ratioP2
81398;SDS011;70853;50.074;10.224;2023-09-07T00:00:10;7.03;;;4.68;;
81398;SDS011;70853;50.074;10.224;2023-09-07T00:02:37;5.35;;;4.85;;
81398;SDS011;70853;50.074;10.224;2023-09-07T00:05:04;6.20;;;5.60;;
81398;SDS011;70853;50.074;10.224;2023-09-07T00:12:22;5.13;;;4.65;;
81398;SDS011;70853;50.074;10.224;2023-09-07T00:14:48;4.68;;;3.60;;
81398;SDS011;70853;50.074;10.224;2023-09-07T00:17:14;9.27;;;5.50;;
81398;SDS011;70853;50.074;10.224;2023-09-07T00:19:40;6.80;;;6.22;;
81398;SDS011;70853;50.074;10.224;2023-09-07T00:22:05;6.43;;;5.10;;
81398;SDS011;70853;50.074;10.224;2023-09-07T00:24:31;9.57;;;6.97;;
81398;SDS011;70853;50.074;10.224;2023-09-07T00:26:58;7.03;;;6.35;;
81398;SDS011;70853;50.074;10.224;2023-09-07T00:29:24;6.32;;;4.35;;
81398;SDS011;70853;50.074;10.224;2023-09-07T00:31:50;6.15;;;4.97;;
81398;SDS011;70853;50.074;10.224;2023-09-07T00:34:15;7.38;;;6.15;;
81398;SDS011;70853;50.074;10.224;2023-09-07T00:36:41;9.18;;;8.32;;
81398;SDS011;70853;50.074;10.224;2023-09-07T00:39:07;12.48;;;10.52;;
81398;SDS011;70853;50.074;10.224;2023-09-07T00:41:33;7.40;;;6.43;;
81398;SDS011;70853;50.074;10.224;2023-09-07T00:43:59;9.82;;;8.55;;
81398;SDS011;70853;50.074;10.224;2023-09-07T00:46:24;5.88;;;5.22;;
81398;SDS011;70853;50.074;10.224;2023-09-07T00:48:51;4.65;;;4.20;;
81398;SDS011;70853;50.074;10.224;2023-09-07T00:51:16;6.70;;;5.75;;
81398;SDS011;70853;50.074;10.224;2023-09-07T00:53:42;6.90;;;4.63;;
81398;SDS011;70853;50.074;10.224;2023-09-07T00:56:09;6.70;;;4.18;;
81398;SDS011;70853;50.074;10.224;2023-09-07T00:58:34;6.97;;;4.55;;
81398;SDS011;70853;50.074;10.224;2023-09-07T01:01:01;5.78;;;4.63;;
81398;SDS011;70853;50.074;10.224;2023-09-07T01:03:27;5.72;;;5.22;;
81398;SDS011;70853;50.074;10.224;2023-09-07T01:05:58;10.32;;;8.90;;
81398;SDS011;70853;50.074;10.224;2023-09-07T01:08:31;6.28;;;5.78;;
81398;SDS011;70853;50.074;10.224;2023-09-07T01:11:16;8.68;;;7.85;;
81398;SDS011;70853;50.074;10.224;2023-09-07T01:13:47;6.82;;;6.20;;
81398;SDS011;70853;50.074;10.224;2023-09-07T01:16:13;9.90;;;5.47;;
81398;SDS011;70853;50.074;10.224;2023-09-07T01:18:39;7.65;;;6.95;;
81398;SDS011;70853;50.074;10.224;2023-09-07T01:21:07;6.13;;;4.03;;
81398;SDS011;70853;50.074;10.224;2023-09-07T01:23:45;5.45;;;4.95;;
81398;SDS011;70853;50.074;10.224;2023-09-07T01:26:16;6.05;;;4.50;;
81398;SDS011;70853;50.074;10.224;2023-09-07T01:28:42;5.32;;;4.82;;
81398;SDS011;70853;50.074;10.224;2023-09-07T01:31:08;4.93;;;3.22;;
81398;SDS011;70853;50.074;10.224;2023-09-07T01:33:34;7.20;;;6.63;;
81398;SDS011;70853;50.074;10.224;2023-09-07T01:36:00;5.95;;;5.45;;
81398;SDS011;70853;50.074;10.224;2023-09-07T01:38:26;6.72;;;5.00;;
81398;SDS011;70853;50.074;10.224;2023-09-07T01:40:51;6.78;;;6.18;;
81398;SDS011;70853;50.074;10.224;2023-09-07T01:43:17;4.82;;;4.35;;
81398;SDS011;70853;50.074;10.224;2023-09-07T01:45:42;6.57;;;5.70;;
81398;SDS011;70853;50.074;10.224;2023-09-07T01:48:08;4.90;;;4.45;;
81398;SDS011;70853;50.074;10.224;2023-09-07T01:50:36;7.55;;;4.97;;
81398;SDS011;70853;50.074;10.224;2023-09-07T01:53:03;5.60;;;5.07;;
81398;SDS011;70853;50.074;10.224;2023-09-07T01:55:30;6.00;;;5.30;;
81398;SDS011;70853;50.074;10.224;2023-09-07T01:57:58;8.65;;;6.57;;
81398;SDS011;70853;50.074;10.224;2023-09-07T02:00:24;6.07;;;4.80;;
81398;SDS011;70853;50.074;10.224;2023-09-07T02:02:50;6.95;;;4.68;;
81398;SDS011;70853;50.074;10.224;2023-09-07T02:05:15;9.38;;;8.13;;
81398;SDS011;70853;50.074;10.224;2023-09-07T02:07:42;6.97;;;5.88;;
81398;SDS011;70853;50.074;10.224;2023-09-07T02:10:08;6.80;;;6.10;;
81398;SDS011;70853;50.074;10.224;2023-09-07T02:12:34;8.88;;;8.18;;
81398;SDS011;70853;50.074;10.224;2023-09-07T02:15:01;5.95;;;5.45;;
81398;SDS011;70853;50.074;10.224;2023-09-07T02:17:28;6.57;;;5.68;;
81398;SDS011;70853;50.074;10.224;2023-09-07T02:19:54;7.53;;;5.40;;
81398;SDS011;70853;50.074;10.224;2023-09-07T02:22:19;8.75;;;8.05;;
81398;SDS011;70853;50.074;10.224;2023-09-07T02:24:45;8.43;;;5.40;;
81398;SDS011;70853;50.074;10.224;2023-09-07T02:27:10;6.57;;;5.90;;
81398;SDS011;70853;50.074;10.224;2023-09-07T02:29:36;6.93;;;6.32;;
81398;SDS011;70853;50.074;10.224;2023-09-07T02:32:02;5.93;;;5.32;;
81398;SDS011;70853;50.074;10.224;2023-09-07T02:34:28;9.98;;;6.60;;
81398;SDS011;70853;50.074;10.224;2023-09-07T02:36:54;8.48;;;7.65;;
81398;SDS011;70853;50.074;10.224;2023-09-07T02:39:22;7.22;;;5.65;;
81398;SDS011;70853;50.074;10.224;2023-09-07T02:41:51;10.02;;;9.02;;
81398;SDS011;70853;50.074;10.224;2023-09-07T02:44:17;7.40;;;6.20;;
81398;SDS011;70853;50.074;10.224;2023-09-07T02:46:43;6.25;;;3.90;;
81398;SDS011;70853;50.074;10.224;2023-09-07T02:49:08;7.15;;;6.45;;
81398;SDS011;70853;50.074;10.224;2023-09-07T02:51:35;7.53;;;6.90;;
81398;SDS011;70853;50.074;10.224;2023-09-07T02:54:01;8.55;;;7.90;;
81398;SDS011;70853;50.074;10.224;2023-09-07T02:56:27;7.78;;;7.13;;
81398;SDS011;70853;50.074;10.224;2023-09-07T02:58:52;6.60;;;5.95;;
81398;SDS011;70853;50.074;10.224;2023-09-07T03:01:18;8.70;;;7.38;;
81398;SDS011;70853;50.074;10.224;2023-09-07T03:03:46;15.02;;;12.05;;
81398;SDS011;70853;50.074;10.224;2023-09-07T03:06:13;8.75;;;7.88;;
81398;SDS011;70853;50.074;10.224;2023-09-07T03:08:41;8.45;;;7.70;;
81398;SDS011;70853;50.074;10.224;2023-09-07T03:11:06;7.38;;;6.70;;
81398;SDS011;70853;50.074;10.224;2023-09-07T03:13:33;5.28;;;4.85;;
81398;SDS011;70853;50.074;10.224;2023-09-07T03:15:59;8.82;;;7.93;;
81398;SDS011;70853;50.074;10.224;2023-09-07T03:18:25;8.32;;;5.72;;
81398;SDS011;70853;50.074;10.224;2023-09-07T03:20:52;7.18;;;6.13;;
81398;SDS011;70853;50.074;10.224;2023-09-07T03:23:19;5.90;;;5.05;;
81398;SDS011;70853;50.074;10.224;2023-09-07T03:25:45;6.82;;;5.93;;
81398;SDS011;70853;50.074;10.224;2023-09-07T03:28:11;6.55;;;5.95;;
81398;SDS011;70853;50.074;10.224;2023-09-07T03:30:37;8.38;;;7.65;;
81398;SDS011;70853;50.074;10.224;2023-09-07T03:33:04;9.15;;;7.78;;
81398;SDS011;70853;50.074;10.224;2023-09-07T03:35:31;8.60;;;7.80;;
81398;SDS011;70853;50.074;10.224;2023-09-07T03:37:57;8.65;;;6.65;;
81398;SDS011;70853;50.074;10.224;2023-09-07T03:40:22;8.95;;;8.23;;
81398;SDS011;70853;50.074;10.224;2023-09-07T03:42:48;9.82;;;8.90;;
81398;SDS011;70853;50.074;10.224;2023-09-07T03:45:14;8.60;;;6.60;;
81398;SDS011;70853;50.074;10.224;2023-09-07T03:47:41;7.45;;;6.82;;
81398;SDS011;70853;50.074;10.224;2023-09-07T03:52:34;7.20;;;6.07;;
81398;SDS011;70853;50.074;10.224;2023-09-07T03:55:02;8.43;;;7.65;;
81398;SDS011;70853;50.074;10.224;2023-09-07T03:57:28;7.60;;;6.93;;
81398;SDS011;70853;50.074;10.224;2023-09-07T03:59:54;5.95;;;5.38;;
81398;SDS011;70853;50.074;10.224;2023-09-07T04:02:21;6.32;;;4.32;;
81398;SDS011;70853;50.074;10.224;2023-09-07T04:04:53;6.95;;;6.40;;
81398;SDS011;70853;50.074;10.224;2023-09-07T04:07:20;7.15;;;5.82;;
81398;SDS011;70853;50.074;10.224;2023-09-07T04:09:47;7.88;;;4.85;;
81398;SDS011;70853;50.074;10.224;2023-09-07T04:12:12;5.65;;;4.35;;
81398;SDS011;70853;50.074;10.224;2023-09-07T04:14:38;7.60;;;7.00;;
81398;SDS011;70853;50.074;10.224;2023-09-07T04:17:04;9.25;;;7.72;;
81398;SDS011;70853;50.074;10.224;2023-09-07T04:19:30;6.18;;;5.50;;
81398;SDS011;70853;50.074;10.224;2023-09-07T04:21:56;5.65;;;5.15;;
81398;SDS011;70853;50.074;10.224;2023-09-07T04:24:23;5.30;;;4.38;;
81398;SDS011;70853;50.074;10.224;2023-09-07T04:26:49;6.97;;;6.28;;
81398;SDS011;70853;50.074;10.224;2023-09-07T04:29:15;4.75;;;4.35;;
81398;SDS011;70853;50.074;10.224;2023-09-07T04:31:41;7.75;;;5.80;;
81398;SDS011;70853;50.074;10.224;2023-09-07T04:34:08;7.40;;;5.85;;
81398;SDS011;70853;50.074;10.224;2023-09-07T04:36:34;5.70;;;4.40;;
81398;SDS011;70853;50.074;10.224;2023-09-07T04:39:00;8.30;;;7.55;;
81398;SDS011;70853;50.074;10.224;2023-09-07T04:41:26;7.53;;;6.88;;
81398;SDS011;70853;50.074;10.224;2023-09-07T04:43:51;10.20;;;8.32;;
81398;SDS011;70853;50.074;10.224;2023-09-07T04:46:20;5.68;;;4.95;;
81398;SDS011;70853;50.074;10.224;2023-09-07T04:48:48;6.60;;;5.90;;
81398;SDS011;70853;50.074;10.224;2023-09-07T04:51:15;9.20;;;8.50;;
81398;SDS011;70853;50.074;10.224;2023-09-07T04:53:42;8.90;;;6.70;;
81398;SDS011;70853;50.074;10.224;2023-09-07T04:56:08;7.82;;;7.07;;
81398;SDS011;70853;50.074;10.224;2023-09-07T04:58:34;10.32;;;6.30;;
81398;SDS011;70853;50.074;10.224;2023-09-07T05:01:10;9.52;;;8.63;;
81398;SDS011;70853;50.074;10.224;2023-09-07T05:03:38;8.77;;;6.57;;
81398;SDS011;70853;50.074;10.224;2023-09-07T05:06:06;13.30;;;4.88;;
81398;SDS011;70853;50.074;10.224;2023-09-07T05:08:32;5.65;;;4.82;;
81398;SDS011;70853;50.074;10.224;2023-09-07T05:11:01;9.50;;;8.65;;
81398;SDS011;70853;50.074;10.224;2023-09-07T05:13:28;7.60;;;4.80;;
81398;SDS011;70853;50.074;10.224;2023-09-07T05:15:57;9.18;;;7.85;;
81398;SDS011;70853;50.074;10.224;2023-09-07T05:18:25;7.20;;;6.47;;
81398;SDS011;70853;50.074;10.224;2023-09-07T05:20:50;8.25;;;7.55;;
81398;SDS011;70853;50.074;10.224;2023-09-07T05:23:20;7.65;;;5.78;;
81398;SDS011;70853;50.074;10.224;2023-09-07T05:25:48;8.30;;;7.50;;
81398;SDS011;70853;50.074;10.224;2023-09-07T05:28:21;9.75;;;9.00;;
81398;SDS011;70853;50.074;10.224;2023-09-07T05:30:48;7.30;;;3.72;;
81398;SDS011;70853;50.074;10.224;2023-09-07T05:33:24;6.10;;;5.30;;
81398;SDS011;70853;50.074;10.224;2023-09-07T05:35:50;5.40;;;4.50;;
81398;SDS011;70853;50.074;10.224;2023-09-07T05:38:15;10.38;;;6.60;;
81398;SDS011;70853;50.074;10.224;2023-09-07T05:40:43;8.75;;;8.02;;
81398;SDS011;70853;50.074;10.224;2023-09-07T05:43:11;7.43;;;6.72;;
81398;SDS011;70853;50.074;10.224;2023-09-07T05:45:40;7.65;;;5.32;;
81398;SDS011;70853;50.074;10.224;2023-09-07T05:48:09;6.13;;;4.32;;
81398;SDS011;70853;50.074;10.224;2023-09-07T05:50:37;6.00;;;5.20;;
81398;SDS011;70853;50.074;10.224;2023-09-07T05:53:04;6.57;;;5.90;;
81398;SDS011;70853;50.074;10.224;2023-09-07T05:55:30;6.47;;;5.88;;
81398;SDS011;70853;50.074;10.224;2023-09-07T05:57:57;9.05;;;8.30;;
81398;SDS011;70853;50.074;10.224;2023-09-07T06:00:24;6.30;;;5.72;;
81398;SDS011;70853;50.074;10.224;2023-09-07T06:02:51;7.47;;;5.60;;
81398;SDS011;70853;50.074;10.224;2023-09-07T06:05:17;5.22;;;4.75;;
81398;SDS011;70853;50.074;10.224;2023-09-07T06:07:44;5.97;;;4.95;;
81398;SDS011;70853;50.074;10.224;2023-09-07T06:10:11;6.43;;;5.82;;
81398;SDS011;70853;50.074;10.224;2023-09-07T06:12:37;9.10;;;8.05;;
81398;SDS011;70853;50.074;10.224;2023-09-07T06:15:04;8.65;;;7.85;;
81398;SDS011;70853;50.074;10.224;2023-09-07T06:17:30;9.10;;;8.38;;
81398;SDS011;70853;50.074;10.224;2023-09-07T06:19:57;8.40;;;7.65;;
81398;SDS011;70853;50.074;10.224;2023-09-07T06:22:26;6.75;;;6.15;;
81398;SDS011;70853;50.074;10.224;2023-09-07T06:24:56;10.55;;;9.75;;
81398;SDS011;70853;50.074;10.224;2023-09-07T06:27:22;7.82;;;5.20;;
81398;SDS011;70853;50.074;10.224;2023-09-07T06:29:51;7.63;;;7.00;;
81398;SDS011;70853;50.074;10.224;2023-09-07T06:32:18;7.20;;;5.90;;
81398;SDS011;70853;50.074;10.224;2023-09-07T06:34:45;10.95;;;10.13;;
81398;SDS011;70853;50.074;10.224;2023-09-07T06:37:21;8.75;;;7.85;;
81398;SDS011;70853;50.074;10.224;2023-09-07T06:39:46;8.48;;;6.95;;
81398;SDS011;70853;50.074;10.224;2023-09-07T06:42:15;10.65;;;9.80;;
81398;SDS011;70853;50.074;10.224;2023-09-07T06:44:48;7.88;;;7.18;;
81398;SDS011;70853;50.074;10.224;2023-09-07T06:47:14;7.05;;;5.85;;
81398;SDS011;70853;50.074;10.224;2023-09-07T06:49:40;8.32;;;7.60;;
81398;SDS011;70853;50.074;10.224;2023-09-07T06:52:07;9.20;;;8.50;;
81398;SDS011;70853;50.074;10.224;2023-09-07T06:54:35;7.15;;;6.53;;
81398;SDS011;70853;50.074;10.224;2023-09-07T06:57:01;5.57;;;5.07;;
81398;SDS011;70853;50.074;10.224;2023-09-07T06:59:27;9.77;;;8.77;;
81398;SDS011;70853;50.074;10.224;2023-09-07T07:01:53;6.78;;;5.43;;
81398;SDS011;70853;50.074;10.224;2023-09-07T07:04:19;6.53;;;5.93;;
81398;SDS011;70853;50.074;10.224;2023-09-07T07:06:44;8.15;;;7.55;;
81398;SDS011;70853;50.074;10.224;2023-09-07T07:09:10;5.28;;;4.78;;
81398;SDS011;70853;50.074;10.224;2023-09-07T07:11:36;6.50;;;5.95;;
81398;SDS011;70853;50.074;10.224;2023-09-07T07:14:04;6.82;;;5.20;;
81398;SDS011;70853;50.074;10.224;2023-09-07T07:16:30;6.35;;;4.03;;
81398;SDS011;70853;50.074;10.224;2023-09-07T07:18:55;7.28;;;4.40;;
81398;SDS011;70853;50.074;10.224;2023-09-07T07:21:21;4.68;;;4.07;;
81398;SDS011;70853;50.074;10.224;2023-09-07T07:23:47;3.83;;;3.28;;
81398;SDS011;70853;50.074;10.224;2023-09-07T07:26:15;6.03;;;5.53;;
81398;SDS011;70853;50.074;10.224;2023-09-07T07:28:41;4.15;;;3.75;;
81398;SDS011;70853;50.074;10.224;2023-09-07T07:31:07;4.93;;;4.47;;
81398;SDS011;70853;50.074;10.224;2023-09-07T07:33:36;5.82;;;5.22;;
81398;SDS011;70853;50.074;10.224;2023-09-07T07:36:03;5.93;;;5.13;;
81398;SDS011;70853;50.074;10.224;2023-09-07T07:38:29;3.50;;;2.53;;
81398;SDS011;70853;50.074;10.224;2023-09-07T07:40:55;5.85;;;3.60;;
81398;SDS011;70853;50.074;10.224;2023-09-07T07:43:21;6.88;;;4.90;;
81398;SDS011;70853;50.074;10.224;2023-09-07T07:45:47;4.90;;;3.20;;
81398;SDS011;70853;50.074;10.224;2023-09-07T07:48:13;4.40;;;4.00;;
81398;SDS011;70853;50.074;10.224;2023-09-07T07:50:41;4.88;;;3.63;;
81398;SDS011;70853;50.074;10.224;2023-09-07T07:55:35;4.47;;;4.05;;
81398;SDS011;70853;50.074;10.224;2023-09-07T07:58:05;6.25;;;5.65;;
81398;SDS011;70853;50.074;10.224;2023-09-07T08:00:36;3.38;;;2.85;;
81398;SDS011;70853;50.074;10.224;2023-09-07T08:03:04;4.43;;;4.00;;
81398;SDS011;70853;50.074;10.224;2023-09-07T08:05:35;5.32;;;4.45;;
81398;SDS011;70853;50.074;10.224;2023-09-07T08:08:02;5.25;;;4.80;;
81398;SDS011;70853;50.074;10.224;2023-09-07T08:10:28;7.55;;;4.13;;
81398;SDS011;70853;50.074;10.224;2023-09-07T08:12:54;6.15;;;5.55;;
81398;SDS011;70853;50.074;10.224;2023-09-07T08:15:20;6.35;;;5.78;;
81398;SDS011;70853;50.074;10.224;2023-09-07T08:17:48;4.75;;;4.20;;
81398;SDS011;70853;50.074;10.224;2023-09-07T08:20:14;8.18;;;7.47;;
81398;SDS011;70853;50.074;10.224;2023-09-07T08:22:41;4.75;;;4.28;;
81398;SDS011;70853;50.074;10.224;2023-09-07T08:25:08;5.95;;;5.43;;
81398;SDS011;70853;50.074;10.224;2023-09-07T08:27:35;4.25;;;3.63;;
81398;SDS011;70853;50.074;10.224;2023-09-07T08:30:00;4.93;;;4.45;;
81398;SDS011;70853;50.074;10.224;2023-09-07T08:32:29;6.68;;;6.15;;
81398;SDS011;70853;50.074;10.224;2023-09-07T08:34:58;2.88;;;2.58;;
81398;SDS011;70853;50.074;10.224;2023-09-07T08:37:26;6.05;;;5.07;;
81398;SDS011;70853;50.074;10.224;2023-09-07T08:39:53;5.75;;;5.10;;
81398;SDS011;70853;50.074;10.224;2023-09-07T08:42:20;4.43;;;3.63;;
81398;SDS011;70853;50.074;10.224;2023-09-07T08:44:49;4.50;;;3.20;;
81398;SDS011;70853;50.074;10.224;2023-09-07T08:47:21;5.63;;;4.60;;
81398;SDS011;70853;50.074;10.224;2023-09-07T08:49:48;5.50;;;3.13;;
81398;SDS011;70853;50.074;10.224;2023-09-07T08:52:46;6.65;;;4.57;;
81398;SDS011;70853;50.074;10.224;2023-09-07T08:55:18;5.13;;;4.68;;
81398;SDS011;70853;50.074;10.224;2023-09-07T08:57:58;6.38;;;4.63;;
81398;SDS011;70853;50.074;10.224;2023-09-07T09:00:24;3.33;;;2.65;;
81398;SDS011;70853;50.074;10.224;2023-09-07T09:03:01;5.05;;;4.25;;
81398;SDS011;70853;50.074;10.224;2023-09-07T09:05:28;4.38;;;3.97;;
81398;SDS011;70853;50.074;10.224;2023-09-07T09:08:26;5.85;;;3.05;;
81398;SDS011;70853;50.074;10.224;2023-09-07T09:11:34;5.55;;;3.42;;
81398;SDS011;70853;50.074;10.224;2023-09-07T09:13:56;3.97;;;3.58;;
81398;SDS011;70853;50.074;10.224;2023-09-07T09:16:21;8.25;;;3.75;;
81398;SDS011;70853;50.074;10.224;2023-09-07T09:18:50;5.43;;;4.18;;
81398;SDS011;70853;50.074;10.224;2023-09-07T09:21:21;5.88;;;3.92;;
81398;SDS011;70853;50.074;10.224;2023-09-07T09:24:08;6.25;;;5.13;;
81398;SDS011;70853;50.074;10.224;2023-09-07T09:26:38;7.03;;;4.38;;
81398;SDS011;70853;50.074;10.224;2023-09-07T09:29:04;4.35;;;3.53;;
81398;SDS011;70853;50.074;10.224;2023-09-07T09:31:36;5.60;;;3.13;;
81398;SDS011;70853;50.074;10.224;2023-09-07T09:34:02;6.13;;;4.50;;
81398;SDS011;70853;50.074;10.224;2023-09-07T09:36:34;3.45;;;2.80;;
81398;SDS011;70853;50.074;10.224;2023-09-07T09:39:02;3.92;;;3.20;;
81398;SDS011;70853;50.074;10.224;2023-09-07T09:41:33;5.65;;;2.55;;
81398;SDS011;70853;50.074;10.224;2023-09-07T09:44:06;6.60;;;5.07;;
81398;SDS011;70853;50.074;10.224;2023-09-07T09:46:35;5.20;;;3.65;;
81398;SDS011;70853;50.074;10.224;2023-09-07T09:49:17;3.13;;;2.45;;
81398;SDS011;70853;50.074;10.224;2023-09-07T09:51:45;5.78;;;5.22;;
81398;SDS011;70853;50.074;10.224;2023-09-07T09:54:13;8.00;;;3.58;;
81398;SDS011;70853;50.074;10.224;2023-09-07T09:56:39;3.40;;;3.05;;
81398;SDS011;70853;50.074;10.224;2023-09-07T09:59:07;5.28;;;3.78;;
81398;SDS011;70853;50.074;10.224;2023-09-07T10:01:40;3.88;;;2.67;;
81398;SDS011;70853;50.074;10.224;2023-09-07T10:04:10;5.15;;;4.65;;
81398;SDS011;70853;50.074;10.224;2023-09-07T10:06:37;4.72;;;2.35;;
81398;SDS011;70853;50.074;10.224;2023-09-07T10:09:05;3.38;;;3.05;;
81398;SDS011;70853;50.074;10.224;2023-09-07T10:11:37;3.58;;;3.05;;
81398;SDS011;70853;50.074;10.224;2023-09-07T10:19:24;6.05;;;5.45;;
81398;SDS011;70853;50.074;10.224;2023-09-07T10:21:52;3.78;;;3.03;;
81398;SDS011;70853;50.074;10.224;2023-09-07T10:24:34;4.40;;;2.08;;
81398;SDS011;70853;50.074;10.224;2023-09-07T10:27:04;4.40;;;3.25;;
81398;SDS011;70853;50.074;10.224;2023-09-07T10:32:59;4.57;;;3.10;;
81398;SDS011;70853;50.074;10.224;2023-09-07T10:35:25;3.78;;;3.05;;
81398;SDS011;70853;50.074;10.224;2023-09-07T10:37:53;3.20;;;2.47;;
81398;SDS011;70853;50.074;10.224;2023-09-07T10:40:20;4.15;;;2.60;;
81398;SDS011;70853;50.074;10.224;2023-09-07T10:42:46;5.00;;;3.53;;
81398;SDS011;70853;50.074;10.224;2023-09-07T10:45:13;5.93;;;5.47;;
81398;SDS011;70853;50.074;10.224;2023-09-07T10:47:43;4.63;;;3.97;;
81398;SDS011;70853;50.074;10.224;2023-09-07T10:50:10;5.22;;;4.50;;
81398;SDS011;70853;50.074;10.224;2023-09-07T10:52:40;4.00;;;3.13;;
81398;SDS011;70853;50.074;10.224;2023-09-07T10:58:08;3.45;;;2.90;;
81398;SDS011;70853;50.074;10.224;2023-09-07T11:00:35;3.90;;;3.25;;
81398;SDS011;70853;50.074;10.224;2023-09-07T11:03:08;3.63;;;3.00;;
81398;SDS011;70853;50.074;10.224;2023-09-07T11:08:03;9.73;;;3.20;;
81398;SDS011;70853;50.074;10.224;2023-09-07T11:10:34;4.75;;;2.88;;
81398;SDS011;70853;50.074;10.224;2023-09-07T11:13:06;5.90;;;5.18;;
81398;SDS011;70853;50.074;10.224;2023-09-07T11:15:35;7.35;;;4.03;;
81398;SDS011;70853;50.074;10.224;2023-09-07T11:18:05;4.45;;;2.67;;
81398;SDS011;70853;50.074;10.224;2023-09-07T11:20:35;2.85;;;2.08;;
81398;SDS011;70853;50.074;10.224;2023-09-07T11:23:02;5.82;;;5.05;;
81398;SDS011;70853;50.074;10.224;2023-09-07T11:25:37;4.95;;;3.88;;
81398;SDS011;70853;50.074;10.224;2023-09-07T11:28:06;7.72;;;6.93;;
81398;SDS011;70853;50.074;10.224;2023-09-07T11:30:33;4.97;;;3.63;;
81398;SDS011;70853;50.074;10.224;2023-09-07T11:33:06;5.43;;;4.90;;
81398;SDS011;70853;50.074;10.224;2023-09-07T11:35:36;3.88;;;1.92;;
81398;SDS011;70853;50.074;10.224;2023-09-07T11:38:02;5.18;;;4.68;;
81398;SDS011;70853;50.074;10.224;2023-09-07T11:40:32;5.43;;;4.80;;
81398;SDS011;70853;50.074;10.224;2023-09-07T11:43:00;3.10;;;2.33;;
81398;SDS011;70853;50.074;10.224;2023-09-07T11:45:36;4.93;;;4.45;;
81398;SDS011;70853;50.074;10.224;2023-09-07T11:48:05;3.67;;;2.92;;
81398;SDS011;70853;50.074;10.224;2023-09-07T11:50:31;6.30;;;3.45;;
81398;SDS011;70853;50.074;10.224;2023-09-07T11:52:57;5.10;;;4.22;;
81398;SDS011;70853;50.074;10.224;2023-09-07T11:55:25;4.90;;;2.55;;
81398;SDS011;70853;50.074;10.224;2023-09-07T11:57:51;4.05;;;3.05;;
81398;SDS011;70853;50.074;10.224;2023-09-07T12:00:17;4.20;;;3.58;;
81398;SDS011;70853;50.074;10.224;2023-09-07T12:02:43;5.40;;;2.42;;
81398;SDS011;70853;50.074;10.224;2023-09-07T12:05:09;4.93;;;2.08;;
81398;SDS011;70853;50.074;10.224;2023-09-07T12:07:36;4.75;;;2.65;;
81398;SDS011;70853;50.074;10.224;2023-09-07T12:10:05;5.22;;;2.13;;
81398;SDS011;70853;50.074;10.224;2023-09-07T12:12:38;4.78;;;4.38;;
81398;SDS011;70853;50.074;10.224;2023-09-07T12:15:09;7.60;;;4.95;;
81398;SDS011;70853;50.074;10.224;2023-09-07T12:17:39;6.63;;;5.28;;
81398;SDS011;70853;50.074;10.224;2023-09-07T12:20:05;3.00;;;1.73;;
81398;SDS011;70853;50.074;10.224;2023-09-07T12:25:16;6.18;;;3.90;;
81398;SDS011;70853;50.074;10.224;2023-09-07T12:27:42;5.10;;;1.75;;
81398;SDS011;70853;50.074;10.224;2023-09-07T12:30:09;3.97;;;2.20;;
81398;SDS011;70853;50.074;10.224;2023-09-07T12:32:37;5.25;;;2.65;;
81398;SDS011;70853;50.074;10.224;2023-09-07T12:35:04;4.60;;;3.22;;
81398;SDS011;70853;50.074;10.224;2023-09-07T12:37:37;5.63;;;4.53;;
81398;SDS011;70853;50.074;10.224;2023-09-07T12:40:03;3.83;;;2.58;;
81398;SDS011;70853;50.074;10.224;2023-09-07T12:47:29;7.90;;;6.40;;
81398;SDS011;70853;50.074;10.224;2023-09-07T12:49:55;5.55;;;3.70;;
81398;SDS011;70853;50.074;10.224;2023-09-07T12:52:21;4.00;;;2.10;;
81398;SDS011;70853;50.074;10.224;2023-09-07T12:54:47;2.88;;;1.92;;
81398;SDS011;70853;50.074;10.224;2023-09-07T12:57:12;4.13;;;2.08;;
81398;SDS011;70853;50.074;10.224;2023-09-07T12:59:38;3.38;;;2.67;;
81398;SDS011;70853;50.074;10.224;2023-09-07T13:02:03;3.28;;;2.67;;
81398;SDS011;70853;50.074;10.224;2023-09-07T13:04:29;3.85;;;1.98;;
81398;SDS011;70853;50.074;10.224;2023-09-07T13:06:54;3.78;;;1.38;;
81398;SDS011;70853;50.074;10.224;2023-09-07T13:09:20;4.50;;;4.07;;
81398;SDS011;70853;50.074;10.224;2023-09-07T13:11:46;2.85;;;1.05;;
81398;SDS011;70853;50.074;10.224;2023-09-07T13:14:11;5.60;;;1.60;;
81398;SDS011;70853;50.074;10.224;2023-09-07T13:16:37;7.43;;;3.08;;
81398;SDS011;70853;50.074;10.224;2023-09-07T13:19:02;4.45;;;3.97;;
81398;SDS011;70853;50.074;10.224;2023-09-07T13:21:28;5.00;;;3.20;;
81398;SDS011;70853;50.074;10.224;2023-09-07T13:23:54;4.18;;;2.13;;
81398;SDS011;70853;50.074;10.224;2023-09-07T13:26:19;3.40;;;2.35;;
81398;SDS011;70853;50.074;10.224;2023-09-07T13:28:45;3.08;;;1.27;;
81398;SDS011;70853;50.074;10.224;2023-09-07T13:31:10;4.00;;;2.17;;
81398;SDS011;70853;50.074;10.224;2023-09-07T13:33:36;4.22;;;3.83;;
81398;SDS011;70853;50.074;10.224;2023-09-07T13:36:03;3.75;;;2.08;;
81398;SDS011;70853;50.074;10.224;2023-09-07T13:38:28;4.38;;;1.17;;
81398;SDS011;70853;50.074;10.224;2023-09-07T13:40:57;5.07;;;2.10;;
81398;SDS011;70853;50.074;10.224;2023-09-07T13:43:24;3.97;;;2.78;;
81398;SDS011;70853;50.074;10.224;2023-09-07T13:45:50;2.60;;;1.17;;
81398;SDS011;70853;50.074;10.224;2023-09-07T13:48:17;3.60;;;1.77;;
81398;SDS011;70853;50.074;10.224;2023-09-07T13:50:42;2.85;;;1.55;;
81398;SDS011;70853;50.074;10.224;2023-09-07T13:53:09;2.33;;;1.45;;
81398;SDS011;70853;50.074;10.224;2023-09-07T13:55:35;4.95;;;1.20;;
81398;SDS011;70853;50.074;10.224;2023-09-07T13:58:00;2.80;;;1.08;;
81398;SDS011;70853;50.074;10.224;2023-09-07T14:00:26;2.63;;;1.00;;
81398;SDS011;70853;50.074;10.224;2023-09-07T14:02:52;4.07;;;1.58;;
81398;SDS011;70853;50.074;10.224;2023-09-07T14:05:19;4.80;;;0.32;;
81398;SDS011;70853;50.074;10.224;2023-09-07T14:07:45;2.80;;;1.27;;
81398;SDS011;70853;50.074;10.224;2023-09-07T14:10:10;2.50;;;1.98;;
81398;SDS011;70853;50.074;10.224;2023-09-07T14:12:36;3.33;;;2.40;;
81398;SDS011;70853;50.074;10.224;2023-09-07T14:15:01;4.57;;;2.78;;
81398;SDS011;70853;50.074;10.224;2023-09-07T14:17:27;6.10;;;2.03;;
81398;SDS011;70853;50.074;10.224;2023-09-07T14:19:53;3.65;;;2.08;;
81398;SDS011;70853;50.074;10.224;2023-09-07T14:22:22;4.95;;;1.92;;
81398;SDS011;70853;50.074;10.224;2023-09-07T14:25:07;2.53;;;1.20;;
81398;SDS011;70853;50.074;10.224;2023-09-07T14:27:32;1.90;;;1.10;;
81398;SDS011;70853;50.074;10.224;2023-09-07T14:29:59;4.22;;;1.30;;
81398;SDS011;70853;50.074;10.224;2023-09-07T14:32:34;3.40;;;2.17;;
81398;SDS011;70853;50.074;10.224;2023-09-07T14:35:44;2.28;;;1.40;;
81398;SDS011;70853;50.074;10.224;2023-09-07T14:38:09;4.50;;;2.28;;
81398;SDS011;70853;50.074;10.224;2023-09-07T14:40:35;2.50;;;1.38;;
81398;SDS011;70853;50.074;10.224;2023-09-07T14:43:00;3.22;;;1.35;;
81398;SDS011;70853;50.074;10.224;2023-09-07T14:45:27;5.25;;;2.50;;
81398;SDS011;70853;50.074;10.224;2023-09-07T14:47:53;2.75;;;1.27;;
81398;SDS011;70853;50.074;10.224;2023-09-07T14:50:19;5.47;;;1.23;;
81398;SDS011;70853;50.074;10.224;2023-09-07T14:52:44;3.47;;;1.40;;
81398;SDS011;70853;50.074;10.224;2023-09-07T14:55:13;5.13;;;1.88;;
81398;SDS011;70853;50.074;10.224;2023-09-07T14:57:44;3.33;;;0.43;;
81398;SDS011;70853;50.074;10.224;2023-09-07T15:00:10;2.08;;;0.60;;
81398;SDS011;70853;50.074;10.224;2023-09-07T15:02:39;2.38;;;0.82;;
81398;SDS011;70853;50.074;10.224;2023-09-07T15:05:04;2.75;;;1.63;;
81398;SDS011;70853;50.074;10.224;2023-09-07T15:07:30;1.83;;;0.73;;